createdAt,value
2017-05-16T00:00:50.368Z,0
2017-05-16T00:02:12.523Z,0
2017-05-16T00:03:34.698Z,0
2017-05-16T00:04:57.153Z,0
2017-05-16T00:06:18.982Z,0
2017-05-16T00:07:41.241Z,0
2017-05-16T00:09:02.802Z,0
2017-05-16T00:10:24.642Z,0
2017-05-16T00:11:46.792Z,0
2017-05-16T00:13:08.960Z,0
2017-05-16T00:14:30.592Z,0
2017-05-16T00:15:53.619Z,0
2017-05-16T00:17:15.455Z,0
2017-05-16T00:18:37.609Z,0
2017-05-16T00:19:59.130Z,0
2017-05-16T00:21:21.640Z,0
2017-05-16T00:22:43.470Z,0
2017-05-16T00:24:05.002Z,0
2017-05-16T00:25:27.588Z,0
2017-05-16T00:26:50.223Z,0
2017-05-16T00:28:12.179Z,0
2017-05-16T00:29:34.323Z,0
2017-05-16T00:30:55.530Z,0
2017-05-16T00:32:17.353Z,0
2017-05-16T00:33:39.520Z,0
2017-05-16T00:35:01.359Z,0
2017-05-16T00:36:23.534Z,0
2017-05-16T00:37:45.428Z,0
2017-05-16T00:39:07.908Z,0
2017-05-16T00:40:29.438Z,0
2017-05-16T00:41:50.644Z,0
2017-05-16T00:43:12.949Z,0
2017-05-16T00:44:34.160Z,0
2017-05-16T00:45:55.992Z,0
2017-05-16T00:47:17.830Z,0
2017-05-16T00:48:40.640Z,0
2017-05-16T00:50:02.920Z,0
2017-05-16T00:51:25.070Z,0
2017-05-16T00:52:46.900Z,0
2017-05-16T00:54:09.338Z,0
2017-05-16T00:55:31.809Z,0
2017-05-16T00:56:52.699Z,0
2017-05-16T00:58:14.959Z,0
2017-05-16T00:59:36.505Z,0
2017-05-16T01:00:58.638Z,0
2017-05-16T01:02:20.550Z,0
2017-05-16T01:03:42.466Z,0
2017-05-16T01:05:04.709Z,0
2017-05-16T01:06:26.869Z,0
2017-05-16T01:07:49.445Z,0
2017-05-16T01:09:10.671Z,0
2017-05-16T01:10:32.862Z,0
2017-05-16T01:11:55.021Z,0
2017-05-16T01:13:16.581Z,0
2017-05-16T01:14:38.749Z,0
2017-05-16T01:16:00.410Z,0
2017-05-16T01:17:21.927Z,0
2017-05-16T01:18:44.409Z,0
2017-05-16T01:20:06.301Z,0
2017-05-16T01:21:28.818Z,0
2017-05-16T01:22:51.084Z,0
2017-05-16T01:24:13.299Z,0
2017-05-16T01:25:34.941Z,0
2017-05-16T01:26:57.438Z,0
2017-05-16T01:28:19.325Z,0
2017-05-16T01:29:41.267Z,0
2017-05-16T01:31:03.129Z,0
2017-05-16T01:32:25.009Z,0
2017-05-16T01:33:47.169Z,0
2017-05-16T01:35:08.782Z,0
2017-05-16T01:36:30.638Z,0
2017-05-16T01:37:53.602Z,0
2017-05-16T01:39:15.624Z,0
2017-05-16T01:40:37.458Z,0
2017-05-16T01:41:59.310Z,0
2017-05-16T01:43:21.651Z,0
2017-05-16T01:44:43.799Z,0
2017-05-16T01:46:05.323Z,0
2017-05-16T01:47:27.449Z,0
2017-05-16T01:48:49.583Z,0
2017-05-16T01:50:11.418Z,0
2017-05-16T01:51:33.260Z,0
2017-05-16T01:52:55.799Z,0
2017-05-16T01:54:18.288Z,0
2017-05-16T01:55:39.846Z,0
2017-05-16T01:57:01.790Z,0
2017-05-16T01:58:23.618Z,0
2017-05-16T01:59:45.519Z,0
2017-05-16T02:01:07.413Z,0
2017-05-16T02:02:28.927Z,0
2017-05-16T02:03:50.882Z,0
2017-05-16T02:05:13.371Z,0
2017-05-16T02:06:35.513Z,0
2017-05-16T02:07:57.369Z,0
2017-05-16T02:09:19.530Z,0
2017-05-16T02:10:42.099Z,0
2017-05-16T02:12:03.930Z,0
2017-05-16T02:13:25.751Z,0
2017-05-16T02:14:47.681Z,0
2017-05-16T02:16:09.828Z,0
2017-05-16T02:17:31.678Z,0
2017-05-16T02:18:53.518Z,0
2017-05-16T02:20:15.408Z,0
2017-05-16T02:21:37.928Z,0
2017-05-16T02:22:59.442Z,0
2017-05-16T02:24:21.631Z,0
2017-05-16T02:25:44.167Z,0
2017-05-16T02:27:06.288Z,0
2017-05-16T02:28:28.750Z,0
2017-05-16T02:29:50.920Z,0
2017-05-16T02:31:12.431Z,0
2017-05-16T02:32:34.558Z,0
2017-05-16T02:33:55.751Z,0
2017-05-16T02:35:17.268Z,0
2017-05-16T02:36:39.739Z,0
2017-05-16T02:38:02.228Z,0
2017-05-16T02:39:24.058Z,0
2017-05-16T02:40:45.890Z,0
2017-05-16T02:42:08.051Z,0
2017-05-16T02:43:29.619Z,0
2017-05-16T02:44:50.818Z,0
2017-05-16T02:46:13.341Z,0
2017-05-16T02:47:35.173Z,0
2017-05-16T02:48:57.315Z,0
2017-05-16T02:50:19.540Z,0
2017-05-16T02:51:41.411Z,0
2017-05-16T02:53:03.257Z,0
2017-05-16T02:54:25.496Z,0
2017-05-16T02:55:47.646Z,0
2017-05-16T02:57:09.811Z,0
2017-05-16T02:58:32.017Z,0
2017-05-16T02:59:54.467Z,0
2017-05-16T03:01:16.989Z,0
2017-05-16T03:02:38.208Z,0
2017-05-16T03:03:59.728Z,0
2017-05-16T03:05:22.166Z,0
2017-05-16T03:06:44.318Z,0
2017-05-16T03:08:06.865Z,0
2017-05-16T03:09:28.749Z,0
2017-05-16T03:10:50.300Z,0
2017-05-16T03:12:12.641Z,0
2017-05-16T03:13:34.502Z,0
2017-05-16T03:14:56.169Z,0
2017-05-16T03:16:18.618Z,0
2017-05-16T03:17:40.770Z,0
2017-05-16T03:19:02.948Z,0
2017-05-16T03:20:24.790Z,0
2017-05-16T03:21:47.098Z,0
2017-05-16T03:23:08.308Z,0
2017-05-16T03:24:30.504Z,0
2017-05-16T03:25:52.370Z,0
2017-05-16T03:27:15.227Z,0
2017-05-16T03:28:36.475Z,0
2017-05-16T03:29:58.642Z,0
2017-05-16T03:31:20.250Z,0
2017-05-16T03:32:42.477Z,0
2017-05-16T03:34:03.678Z,0
2017-05-16T03:35:25.643Z,0
2017-05-16T03:36:47.490Z,0
2017-05-16T03:38:09.985Z,0
2017-05-16T03:39:32.212Z,0
2017-05-16T03:40:54.370Z,0
2017-05-16T03:42:15.746Z,0
2017-05-16T03:43:37.634Z,0
2017-05-16T03:44:59.515Z,0
2017-05-16T03:46:21.348Z,0
2017-05-16T03:47:42.979Z,0
2017-05-16T03:49:05.107Z,0
2017-05-16T03:50:26.618Z,0
2017-05-16T03:51:48.757Z,0
2017-05-16T03:53:10.909Z,5
2017-05-16T03:54:33.359Z,5
2017-05-16T03:55:55.518Z,5
2017-05-16T03:57:18.084Z,5
2017-05-16T03:58:40.285Z,5
2017-05-16T04:00:02.111Z,5
2017-05-16T04:01:23.958Z,5
2017-05-16T04:02:45.787Z,5
2017-05-16T04:04:08.409Z,5
2017-05-16T04:05:30.647Z,10
2017-05-16T04:06:52.155Z,10
2017-05-16T04:08:13.668Z,10
2017-05-16T04:09:36.116Z,10
2017-05-16T04:10:58.340Z,10
2017-05-16T04:12:20.570Z,15
2017-05-16T04:13:42.730Z,15
2017-05-16T04:15:04.637Z,20
2017-05-16T04:16:26.936Z,20
2017-05-16T04:17:48.158Z,20
2017-05-16T04:19:09.359Z,20
2017-05-16T04:20:30.883Z,20
2017-05-16T04:21:53.386Z,25
2017-05-16T04:23:14.910Z,20
2017-05-16T04:24:36.740Z,20
2017-05-16T04:25:58.850Z,20
2017-05-16T04:27:21.047Z,25
2017-05-16T04:28:41.949Z,25
2017-05-16T04:30:03.782Z,25
2017-05-16T04:31:25.307Z,25
2017-05-16T04:32:47.339Z,25
2017-05-16T04:34:08.847Z,25
2017-05-16T04:35:30.686Z,30
2017-05-16T04:36:52.526Z,30
2017-05-16T04:38:16.150Z,30
2017-05-16T04:39:38.408Z,35
2017-05-16T04:41:00.919Z,35
2017-05-16T04:42:22.447Z,40
2017-05-16T04:43:45.228Z,40
2017-05-16T04:45:07.067Z,40
2017-05-16T04:46:28.596Z,40
2017-05-16T04:47:50.109Z,45
2017-05-16T04:49:11.935Z,50
2017-05-16T04:50:33.858Z,50
2017-05-16T04:51:55.698Z,50
2017-05-16T04:53:17.910Z,55
2017-05-16T04:54:40.770Z,60
2017-05-16T04:56:03.317Z,65
2017-05-16T04:57:25.505Z,70
2017-05-16T04:58:47.361Z,75
2017-05-16T05:00:09.167Z,80
2017-05-16T05:01:30.749Z,85
2017-05-16T05:02:52.611Z,85
2017-05-16T05:04:14.139Z,90
2017-05-16T05:05:35.945Z,85
2017-05-16T05:06:57.787Z,80
2017-05-16T05:08:19.628Z,80
2017-05-16T05:09:41.139Z,75
2017-05-16T05:11:03.387Z,75
2017-05-16T05:12:25.269Z,70
2017-05-16T05:13:47.418Z,70
2017-05-16T05:15:08.950Z,70
2017-05-16T05:16:31.458Z,75
2017-05-16T05:17:53.629Z,80
2017-05-16T05:19:15.848Z,80
2017-05-16T05:20:37.778Z,75
2017-05-16T05:21:59.608Z,70
2017-05-16T05:23:21.425Z,65
2017-05-16T05:24:42.958Z,60
2017-05-16T05:26:04.500Z,55
2017-05-16T05:27:26.719Z,55
2017-05-16T05:28:48.676Z,50
2017-05-16T05:30:11.346Z,50
2017-05-16T05:31:33.218Z,55
2017-05-16T05:32:54.738Z,60
2017-05-16T05:34:16.968Z,60
2017-05-16T05:35:38.813Z,65
2017-05-16T05:37:00.649Z,65
2017-05-16T05:38:23.109Z,65
2017-05-16T05:39:45.049Z,70
2017-05-16T05:41:07.012Z,80
2017-05-16T05:42:28.949Z,90
2017-05-16T05:43:51.458Z,95
2017-05-16T05:45:13.937Z,100
2017-05-16T05:46:35.770Z,100
2017-05-16T05:47:58.269Z,120
2017-05-16T05:49:20.149Z,125
2017-05-16T05:50:42.628Z,125
2017-05-16T05:52:04.164Z,135
2017-05-16T05:53:26.460Z,140
2017-05-16T05:54:47.958Z,140
2017-05-16T05:56:09.508Z,135
2017-05-16T05:57:31.788Z,130
2017-05-16T05:58:53.929Z,120
2017-05-16T06:00:16.330Z,110
2017-05-16T06:01:38.178Z,105
2017-05-16T06:03:00.017Z,100
2017-05-16T06:04:22.189Z,100
2017-05-16T06:05:44.977Z,100
2017-05-16T06:07:06.804Z,90
2017-05-16T06:08:28.326Z,90
2017-05-16T06:09:50.478Z,80
2017-05-16T06:11:12.670Z,75
2017-05-16T06:12:34.836Z,75
2017-05-16T06:13:56.059Z,80
2017-05-16T06:15:17.909Z,80
2017-05-16T06:16:39.788Z,85
2017-05-16T06:18:01.309Z,90
2017-05-16T06:19:23.182Z,100
2017-05-16T06:20:44.807Z,105
2017-05-16T06:22:07.320Z,105
2017-05-16T06:23:28.519Z,110
2017-05-16T06:24:50.368Z,105
2017-05-16T06:26:11.889Z,110
2017-05-16T06:27:34.442Z,120
2017-05-16T06:28:56.056Z,135
2017-05-16T06:30:17.680Z,145
2017-05-16T06:31:39.838Z,155
2017-05-16T06:33:02.357Z,155
2017-05-16T06:34:23.910Z,155
2017-05-16T06:35:46.070Z,140
2017-05-16T06:37:08.238Z,125
2017-05-16T06:38:30.419Z,125
2017-05-16T06:39:51.619Z,135
2017-05-16T06:41:13.877Z,140
2017-05-16T06:42:35.388Z,140
2017-05-16T06:43:57.882Z,135
2017-05-16T06:45:20.039Z,145
2017-05-16T06:46:41.911Z,155
2017-05-16T06:48:04.062Z,165
2017-05-16T06:49:26.266Z,165
2017-05-16T06:50:47.817Z,160
2017-05-16T06:52:09.759Z,160
2017-05-16T06:53:31.292Z,160
2017-05-16T06:54:52.538Z,160
2017-05-16T06:56:14.710Z,160
2017-05-16T06:57:36.868Z,160
2017-05-16T06:58:59.049Z,150
2017-05-16T07:00:20.878Z,150
2017-05-16T07:01:43.380Z,150
2017-05-16T07:03:05.587Z,145
2017-05-16T07:04:27.535Z,140
2017-05-16T07:05:50.425Z,150
2017-05-16T07:07:11.991Z,145
2017-05-16T07:08:34.150Z,145
2017-05-16T07:09:55.358Z,150
2017-05-16T07:11:17.868Z,145
2017-05-16T07:12:39.089Z,150
2017-05-16T07:14:00.927Z,155
2017-05-16T07:15:22.497Z,170
2017-05-16T07:16:45.088Z,200
2017-05-16T07:18:07.571Z,200
2017-05-16T07:19:29.778Z,190
2017-05-16T07:20:52.019Z,180
2017-05-16T07:22:14.155Z,180
2017-05-16T07:23:36.020Z,175
2017-05-16T07:24:58.190Z,165
2017-05-16T07:26:20.340Z,165
2017-05-16T07:27:42.831Z,175
2017-05-16T07:29:04.685Z,160
2017-05-16T07:30:26.237Z,140
2017-05-16T07:31:47.458Z,130
2017-05-16T07:33:09.278Z,135
2017-05-16T07:34:31.479Z,125
2017-05-16T07:35:53.014Z,110
2017-05-16T07:37:15.257Z,105
2017-05-16T07:38:37.707Z,105
2017-05-16T07:39:59.978Z,105
2017-05-16T07:41:21.221Z,110
2017-05-16T07:42:43.389Z,125
2017-05-16T07:44:05.240Z,125
2017-05-16T07:45:27.729Z,130
2017-05-16T07:46:49.886Z,130
2017-05-16T07:48:11.409Z,140
2017-05-16T07:49:33.869Z,135
2017-05-16T07:50:55.698Z,125
2017-05-16T07:52:17.939Z,120
2017-05-16T07:53:40.191Z,120
2017-05-16T07:55:02.335Z,115
2017-05-16T07:56:24.496Z,115
2017-05-16T07:57:46.731Z,115
2017-05-16T07:59:08.606Z,110
2017-05-16T08:00:31.083Z,110
2017-05-16T08:01:53.748Z,110
2017-05-16T08:03:16.399Z,115
2017-05-16T08:04:38.881Z,135
2017-05-16T08:06:01.327Z,150
2017-05-16T08:07:22.217Z,150
2017-05-16T08:08:43.750Z,140
2017-05-16T08:10:05.600Z,140
2017-05-16T08:11:27.691Z,160
2017-05-16T08:12:49.543Z,155
2017-05-16T08:14:11.408Z,135
2017-05-16T08:15:33.528Z,130
2017-05-16T08:16:55.688Z,135
2017-05-16T08:18:17.578Z,140
2017-05-16T08:19:39.812Z,150
2017-05-16T08:21:01.437Z,170
2017-05-16T08:22:23.337Z,200
2017-05-16T08:23:45.720Z,210
2017-05-16T08:25:08.050Z,200
2017-05-16T08:26:29.929Z,210
2017-05-16T08:27:51.748Z,220
2017-05-16T08:29:13.578Z,235
2017-05-16T08:30:35.791Z,240
2017-05-16T08:31:58.057Z,235
2017-05-16T08:33:20.824Z,245
2017-05-16T08:34:42.348Z,265
2017-05-16T08:36:04.508Z,260
2017-05-16T08:37:26.041Z,255
2017-05-16T08:38:48.440Z,265
2017-05-16T08:40:10.602Z,280
2017-05-16T08:41:32.428Z,275
2017-05-16T08:42:54.269Z,280
2017-05-16T08:44:16.450Z,290
2017-05-16T08:45:38.018Z,300
2017-05-16T08:46:59.868Z,320
2017-05-16T08:48:21.870Z,345
2017-05-16T08:49:44.025Z,365
2017-05-16T08:51:06.498Z,345
2017-05-16T08:52:28.377Z,330
2017-05-16T08:53:50.638Z,330
2017-05-16T08:55:12.820Z,340
2017-05-16T08:56:34.098Z,350
2017-05-16T08:57:55.615Z,365
2017-05-16T08:59:17.795Z,340
2017-05-16T09:00:39.298Z,305
2017-05-16T09:02:01.126Z,295
2017-05-16T09:03:22.648Z,265
2017-05-16T09:04:45.007Z,215
2017-05-16T09:06:06.826Z,195
2017-05-16T09:07:28.097Z,200
2017-05-16T09:08:49.731Z,215
2017-05-16T09:10:11.566Z,250
2017-05-16T09:11:34.030Z,255
2017-05-16T09:12:56.192Z,275
2017-05-16T09:14:18.163Z,285
2017-05-16T09:15:40.437Z,260
2017-05-16T09:17:02.579Z,200
2017-05-16T09:18:25.208Z,165
2017-05-16T09:19:47.477Z,170
2017-05-16T09:21:09.026Z,185
2017-05-16T09:22:31.236Z,205
2017-05-16T09:23:52.857Z,205
2017-05-16T09:25:15.022Z,225
2017-05-16T09:26:37.208Z,245
2017-05-16T09:27:59.989Z,265
2017-05-16T09:29:21.525Z,255
2017-05-16T09:30:43.107Z,265
2017-05-16T09:32:05.376Z,245
2017-05-16T09:34:49.317Z,240
2017-05-16T09:36:11.265Z,200
2017-05-16T09:37:33.227Z,185
2017-05-16T09:38:55.467Z,205
2017-05-16T09:40:17.628Z,350
2017-05-16T09:41:39.556Z,335
2017-05-16T09:43:01.699Z,305
2017-05-16T09:44:24.039Z,290
2017-05-16T09:45:46.246Z,265
2017-05-16T09:47:08.417Z,270
2017-05-16T09:48:30.258Z,275
2017-05-16T09:49:52.387Z,280
2017-05-16T09:51:14.249Z,280
2017-05-16T09:52:36.143Z,290
2017-05-16T09:53:58.088Z,280
2017-05-16T09:55:20.568Z,300
2017-05-16T09:56:42.727Z,295
2017-05-16T09:58:04.698Z,280
2017-05-16T09:59:26.539Z,270
2017-05-16T10:00:49.368Z,260
2017-05-16T10:02:11.567Z,260
2017-05-16T10:03:33.447Z,260
2017-05-16T10:04:54.677Z,260
2017-05-16T10:06:16.815Z,260
2017-05-16T10:07:38.327Z,265
2017-05-16T10:09:00.812Z,290
2017-05-16T10:10:22.370Z,295
2017-05-16T10:11:44.877Z,295
2017-05-16T10:13:06.758Z,290
2017-05-16T10:14:28.347Z,305
2017-05-16T10:15:50.186Z,310
2017-05-16T10:17:12.649Z,270
2017-05-16T10:18:34.486Z,250
2017-05-16T10:19:56.824Z,260
2017-05-16T10:21:18.685Z,270
2017-05-16T10:22:40.605Z,270
2017-05-16T10:24:02.743Z,260
2017-05-16T10:25:25.248Z,250
2017-05-16T10:26:47.777Z,245
2017-05-16T10:28:09.937Z,240
2017-05-16T10:29:31.828Z,240
2017-05-16T10:30:54.087Z,260
2017-05-16T10:32:16.306Z,275
2017-05-16T10:33:38.498Z,275
2017-05-16T10:35:00.037Z,250
2017-05-16T10:36:21.150Z,235
2017-05-16T10:37:43.098Z,225
2017-05-16T10:39:04.632Z,225
2017-05-16T10:40:26.517Z,230
2017-05-16T10:41:48.359Z,245
2017-05-16T10:43:10.297Z,250
2017-05-16T10:44:32.750Z,255
2017-05-16T10:45:55.227Z,260
2017-05-16T10:47:17.116Z,285
2017-05-16T10:48:39.303Z,300
2017-05-16T10:50:01.530Z,315
2017-05-16T10:51:24.006Z,335
2017-05-16T10:52:45.877Z,355
2017-05-16T10:54:08.405Z,350
2017-05-16T10:55:31.029Z,330
2017-05-16T10:56:52.586Z,305
2017-05-16T10:58:14.127Z,260
2017-05-16T10:59:35.957Z,230
2017-05-16T11:00:58.145Z,210
2017-05-16T11:02:19.729Z,210
2017-05-16T11:03:41.877Z,230
2017-05-16T11:05:03.497Z,250
2017-05-16T11:06:26.349Z,260
2017-05-16T11:07:48.358Z,255
2017-05-16T11:09:10.278Z,255
2017-05-16T11:10:32.537Z,245
2017-05-16T11:11:56.204Z,235
2017-05-16T11:13:18.083Z,245
2017-05-16T11:14:39.927Z,245
2017-05-16T11:16:02.284Z,245
2017-05-16T11:17:26.293Z,250
2017-05-16T11:18:48.875Z,265
2017-05-16T11:20:10.807Z,275
2017-05-16T11:21:32.330Z,275
2017-05-16T11:22:54.527Z,290
2017-05-16T11:24:16.062Z,295
2017-05-16T11:25:37.702Z,300
2017-05-16T11:26:59.265Z,305
2017-05-16T11:28:23.238Z,320
2017-05-16T11:29:45.091Z,330
2017-05-16T11:31:07.268Z,335
2017-05-16T11:32:29.760Z,320
2017-05-16T11:33:51.638Z,310
2017-05-16T11:35:13.467Z,315
2017-05-16T11:36:35.307Z,330
2017-05-16T11:37:57.473Z,330
2017-05-16T11:39:19.649Z,305
2017-05-16T11:40:41.913Z,290
2017-05-16T11:42:04.086Z,270
2017-05-16T11:43:25.926Z,255
2017-05-16T11:44:48.186Z,245
2017-05-16T11:46:09.765Z,235
2017-05-16T11:47:31.639Z,225
2017-05-16T11:48:53.824Z,220
2017-05-16T11:50:16.320Z,220
2017-05-16T11:51:38.155Z,205
2017-05-16T11:52:59.997Z,195
2017-05-16T11:54:22.586Z,190
2017-05-16T11:55:45.428Z,190
2017-05-16T11:57:08.021Z,190
2017-05-16T11:58:29.947Z,200
2017-05-16T11:59:52.450Z,220
2017-05-16T12:01:14.861Z,255
2017-05-16T12:02:37.029Z,290
2017-05-16T12:03:58.868Z,315
2017-05-16T12:05:21.037Z,325
2017-05-16T12:06:43.548Z,330
2017-05-16T12:08:05.714Z,330
2017-05-16T12:09:27.919Z,320
2017-05-16T12:10:49.812Z,310
2017-05-16T12:12:11.997Z,305
2017-05-16T12:13:33.854Z,310
2017-05-16T12:14:56.337Z,335
2017-05-16T12:16:18.600Z,355
2017-05-16T12:17:40.771Z,375
2017-05-16T12:19:03.259Z,405
2017-05-16T12:20:25.426Z,405
2017-05-16T12:21:47.286Z,385
2017-05-16T12:23:09.922Z,355
2017-05-16T12:24:31.496Z,330
2017-05-16T12:25:53.747Z,310
2017-05-16T12:27:16.248Z,300
2017-05-16T12:28:39.070Z,295
2017-05-16T12:30:01.544Z,315
2017-05-16T12:31:23.852Z,310
2017-05-16T12:32:46.009Z,300
2017-05-16T12:34:08.207Z,290
2017-05-16T12:35:29.746Z,285
2017-05-16T12:36:51.280Z,285
2017-05-16T12:38:13.197Z,285
2017-05-16T12:39:35.109Z,320
2017-05-16T12:40:56.958Z,350
2017-05-16T12:42:18.816Z,360
2017-05-16T12:43:41.006Z,365
2017-05-16T12:45:03.498Z,375
2017-05-16T12:46:25.726Z,340
2017-05-16T12:47:47.250Z,315
2017-05-16T12:49:09.843Z,320
2017-05-16T12:50:31.986Z,320
2017-05-16T12:51:53.838Z,330
2017-05-16T12:53:16.075Z,355
2017-05-16T12:54:38.624Z,375
2017-05-16T12:56:01.067Z,390
2017-05-16T12:57:22.927Z,400
2017-05-16T12:58:45.096Z,390
2017-05-16T13:00:06.957Z,375
2017-05-16T13:01:29.744Z,365
2017-05-16T13:02:51.590Z,345
2017-05-16T13:04:13.194Z,340
2017-05-16T13:05:35.128Z,355
2017-05-16T13:06:57.288Z,340
2017-05-16T13:08:19.809Z,310
2017-05-16T13:09:41.432Z,305
2017-05-16T13:11:03.700Z,305
2017-05-16T13:12:26.183Z,305
2017-05-16T13:13:48.687Z,285
2017-05-16T13:15:10.849Z,280
2017-05-16T13:16:33.326Z,280
2017-05-16T13:17:55.530Z,285
2017-05-16T13:19:17.403Z,300
2017-05-16T13:20:39.597Z,315
2017-05-16T13:22:02.221Z,325
2017-05-16T13:23:24.425Z,315
2017-05-16T13:24:46.613Z,300
2017-05-16T13:26:09.221Z,290
2017-05-16T13:27:30.487Z,280
2017-05-16T13:28:52.703Z,280
2017-05-16T13:30:14.860Z,285
2017-05-16T13:31:37.377Z,290
2017-05-16T13:32:59.388Z,280
2017-05-16T13:34:21.876Z,275
2017-05-16T13:35:44.086Z,275
2017-05-16T13:37:06.364Z,280
2017-05-16T13:38:28.857Z,275
2017-05-16T13:39:51.639Z,270
2017-05-16T13:41:13.223Z,260
2017-05-16T13:42:35.407Z,255
2017-05-16T13:43:57.660Z,260
2017-05-16T13:45:20.157Z,270
2017-05-16T13:46:41.370Z,265
2017-05-16T13:48:03.567Z,255
2017-05-16T13:49:25.141Z,245
2017-05-16T13:50:47.725Z,230
2017-05-16T13:52:09.580Z,240
2017-05-16T13:53:31.803Z,250
2017-05-16T13:54:54.090Z,250
2017-05-16T13:56:15.988Z,260
2017-05-16T13:57:37.958Z,275
2017-05-16T13:59:00.118Z,290
2017-05-16T14:00:22.608Z,295
2017-05-16T14:01:44.479Z,300
2017-05-16T14:03:06.647Z,295
2017-05-16T14:04:28.165Z,300
2017-05-16T14:05:50.327Z,315
2017-05-16T14:07:12.499Z,330
2017-05-16T14:08:34.671Z,345
2017-05-16T14:09:56.528Z,350
2017-05-16T14:11:18.498Z,340
2017-05-16T14:12:41.226Z,315
2017-05-16T14:14:03.478Z,305
2017-05-16T14:15:25.717Z,305
2017-05-16T14:16:47.576Z,310
2017-05-16T14:18:09.857Z,305
2017-05-16T14:19:31.405Z,290
2017-05-16T14:20:54.017Z,265
2017-05-16T14:22:16.197Z,250
2017-05-16T14:23:38.354Z,250
2017-05-16T14:25:00.197Z,250
2017-05-16T14:26:22.073Z,250
2017-05-16T14:27:44.576Z,250
2017-05-16T14:29:07.377Z,240
2017-05-16T14:30:28.592Z,245
2017-05-16T14:31:51.060Z,250
2017-05-16T14:33:13.544Z,255
2017-05-16T14:34:36.097Z,270
2017-05-16T14:35:58.378Z,275
2017-05-16T14:37:20.636Z,265
2017-05-16T14:38:43.118Z,255
2017-05-16T14:40:05.874Z,250
2017-05-16T14:41:27.781Z,245
2017-05-16T14:42:50.264Z,245
2017-05-16T14:44:12.753Z,245
2017-05-16T14:45:35.538Z,235
2017-05-16T14:46:58.041Z,225
2017-05-16T14:48:20.238Z,210
2017-05-16T14:49:42.776Z,205
2017-05-16T14:51:04.940Z,200
2017-05-16T14:52:26.498Z,190
2017-05-16T14:53:48.684Z,195
2017-05-16T14:55:10.880Z,195
2017-05-16T14:56:33.088Z,185
2017-05-16T14:57:55.006Z,180
2017-05-16T14:59:17.308Z,170
2017-05-16T15:00:39.489Z,165
2017-05-16T15:02:02.067Z,155
2017-05-16T15:03:24.295Z,150
2017-05-16T15:04:46.242Z,155
2017-05-16T15:06:08.534Z,165
2017-05-16T15:07:31.328Z,185
2017-05-16T15:08:53.826Z,200
2017-05-16T15:10:15.978Z,210
2017-05-16T15:11:37.524Z,215
2017-05-16T15:12:59.749Z,210
2017-05-16T15:14:21.713Z,215
2017-05-16T15:15:43.377Z,220
2017-05-16T15:17:05.618Z,230
2017-05-16T15:18:27.398Z,230
2017-05-16T15:19:49.890Z,240
2017-05-16T15:21:11.737Z,240
2017-05-16T15:22:33.591Z,245
2017-05-16T15:23:56.388Z,250
2017-05-16T15:25:18.931Z,255
2017-05-16T15:26:40.790Z,260
2017-05-16T15:28:02.961Z,270
2017-05-16T15:29:25.199Z,280
2017-05-16T15:30:47.376Z,285
2017-05-16T15:32:09.557Z,280
2017-05-16T15:33:32.131Z,270
2017-05-16T15:34:54.267Z,265
2017-05-16T15:36:16.467Z,255
2017-05-16T15:37:38.952Z,245
2017-05-16T15:39:01.168Z,245
2017-05-16T15:40:23.636Z,245
2017-05-16T15:41:45.879Z,245
2017-05-16T15:43:07.747Z,250
2017-05-16T15:44:29.941Z,255
2017-05-16T15:45:52.101Z,260
2017-05-16T15:47:14.590Z,265
2017-05-16T15:48:36.749Z,270
2017-05-16T15:49:59.308Z,280
2017-05-16T15:51:21.785Z,285
2017-05-16T15:52:44.405Z,285
2017-05-16T15:54:06.335Z,280
2017-05-16T15:55:28.546Z,275
2017-05-16T15:56:51.459Z,265
2017-05-16T15:58:13.658Z,255
2017-05-16T15:59:35.848Z,250
2017-05-16T16:00:58.027Z,240
2017-05-16T16:02:20.497Z,240
2017-05-16T16:03:42.697Z,245
2017-05-16T16:05:05.127Z,245
2017-05-16T16:06:27.009Z,250
2017-05-16T16:07:49.806Z,250
2017-05-16T16:09:11.750Z,250
2017-05-16T16:10:33.973Z,245
2017-05-16T16:11:56.205Z,240
2017-05-16T16:13:18.374Z,240
2017-05-16T16:14:40.620Z,245
2017-05-16T16:16:02.468Z,240
2017-05-16T16:17:24.649Z,235
2017-05-16T16:18:47.549Z,230
2017-05-16T16:20:10.677Z,235
2017-05-16T16:21:32.957Z,225
2017-05-16T16:22:56.436Z,235
2017-05-16T16:24:18.917Z,250
2017-05-16T16:25:41.109Z,255
2017-05-16T16:27:03.288Z,245
2017-05-16T16:28:25.460Z,225
2017-05-16T16:29:47.737Z,215
2017-05-16T16:31:10.018Z,215
2017-05-16T16:32:32.190Z,215
2017-05-16T16:33:54.752Z,220
2017-05-16T16:35:17.511Z,230
2017-05-16T16:36:39.411Z,235
2017-05-16T16:38:01.371Z,240
2017-05-16T16:39:23.608Z,245
2017-05-16T16:40:45.772Z,240
2017-05-16T16:42:08.333Z,230
2017-05-16T16:43:30.972Z,220
2017-05-16T16:44:53.491Z,220
2017-05-16T16:46:16.414Z,220
2017-05-16T16:47:38.935Z,220
2017-05-16T16:49:01.140Z,210
2017-05-16T16:50:23.671Z,205
2017-05-16T16:51:46.424Z,195
2017-05-16T16:53:08.305Z,185
2017-05-16T16:54:30.900Z,180
2017-05-16T16:55:52.846Z,170
2017-05-16T16:57:15.668Z,165
2017-05-16T16:58:38.056Z,155
2017-05-16T17:00:00.245Z,155
2017-05-16T17:01:22.163Z,150
2017-05-16T17:02:44.766Z,150
2017-05-16T17:04:06.617Z,145
2017-05-16T17:05:28.228Z,145
2017-05-16T17:06:50.550Z,145
2017-05-16T17:08:14.960Z,145
2017-05-16T17:09:36.838Z,145
2017-05-16T17:10:59.027Z,145
2017-05-16T17:12:21.563Z,150
2017-05-16T17:13:43.803Z,160
2017-05-16T17:15:05.347Z,175
2017-05-16T17:16:27.229Z,180
2017-05-16T17:17:49.520Z,190
2017-05-16T17:19:11.779Z,190
2017-05-16T17:20:34.294Z,190
2017-05-16T17:21:56.306Z,190
2017-05-16T17:23:18.562Z,185
2017-05-16T17:24:41.378Z,180
2017-05-16T17:26:03.700Z,175
2017-05-16T17:27:25.247Z,170
2017-05-16T17:28:47.462Z,165
2017-05-16T17:30:10.448Z,155
2017-05-16T17:31:32.688Z,150
2017-05-16T17:32:54.663Z,145
2017-05-16T17:34:16.857Z,145
2017-05-16T17:35:39.405Z,140
2017-05-16T17:37:01.906Z,140
2017-05-16T17:38:24.436Z,135
2017-05-16T17:39:46.757Z,130
2017-05-16T17:41:09.298Z,125
2017-05-16T17:42:31.851Z,120
2017-05-16T17:43:54.172Z,115
2017-05-16T17:45:16.409Z,110
2017-05-16T17:46:39.349Z,105
2017-05-16T17:48:01.241Z,105
2017-05-16T17:49:23.209Z,100
2017-05-16T17:50:45.729Z,95
2017-05-16T17:52:09.680Z,95
2017-05-16T17:53:31.672Z,95
2017-05-16T17:54:54.006Z,95
2017-05-16T17:56:16.670Z,90
2017-05-16T17:57:39.099Z,85
2017-05-16T17:59:01.586Z,85
2017-05-16T18:00:23.530Z,80
2017-05-16T18:01:45.713Z,80
2017-05-16T18:03:07.987Z,75
2017-05-16T18:04:29.900Z,75
2017-05-16T18:05:52.409Z,70
2017-05-16T18:07:14.792Z,70
2017-05-16T18:08:37.713Z,70
2017-05-16T18:10:00.285Z,65
2017-05-16T18:11:22.800Z,65
2017-05-16T18:12:45.094Z,65
2017-05-16T18:14:07.719Z,65
2017-05-16T18:15:29.929Z,65
2017-05-16T18:16:52.164Z,60
2017-05-16T18:18:14.138Z,60
2017-05-16T18:19:36.936Z,60
2017-05-16T18:20:59.242Z,60
2017-05-16T18:22:21.787Z,55
2017-05-16T18:23:43.995Z,55
2017-05-16T18:25:06.952Z,55
2017-05-16T18:26:29.940Z,55
2017-05-16T18:27:52.458Z,50
2017-05-16T18:29:15.082Z,50
2017-05-16T18:30:37.275Z,50
2017-05-16T18:31:59.787Z,45
2017-05-16T18:33:22.047Z,45
2017-05-16T18:34:43.976Z,40
2017-05-16T18:36:06.165Z,40
2017-05-16T18:37:28.689Z,40
2017-05-16T18:38:50.960Z,35
2017-05-16T18:40:13.587Z,35
2017-05-16T18:41:36.071Z,35
2017-05-16T18:42:58.271Z,30
2017-05-16T18:44:20.450Z,30
2017-05-16T18:45:42.317Z,30
2017-05-16T18:47:04.974Z,25
2017-05-16T18:48:26.889Z,25
2017-05-16T18:49:49.418Z,20
2017-05-16T18:51:11.724Z,20
2017-05-16T18:52:34.328Z,20
2017-05-16T18:53:56.515Z,15
2017-05-16T18:55:18.686Z,15
2017-05-16T18:56:40.936Z,15
2017-05-16T18:58:03.465Z,10
2017-05-16T18:59:25.960Z,10
2017-05-16T19:00:48.276Z,10
2017-05-16T19:02:10.904Z,10
2017-05-16T19:03:33.347Z,10
2017-05-16T19:04:55.565Z,5
2017-05-16T19:06:18.334Z,5
2017-05-16T19:07:40.577Z,5
2017-05-16T19:09:02.815Z,5
2017-05-16T19:10:24.718Z,5
2017-05-16T19:11:47.389Z,5
2017-05-16T19:13:09.631Z,5
2017-05-16T19:14:32.132Z,5
2017-05-16T19:15:54.627Z,0